BIEG ŚNIADANIOWY O PUCHAR BURMISTRZ MIELNA - 5 KM

Organizator:
Gmina Mielno, Centrum Kultury w Mielnie – Biuro Organizacyjne Zlotu Morsów
Data:
2019-02-09
Miejsce:
Mielno
Dystans:
5 km
Zgłoszonych:
269
Wystartowało:
244
Nie ukończyło:
1
Ukończyło:
243
Na trasie:
1

Klasyfikacja: Wszyscy

Wyniki nieoficjalne !!!
Pełne wyniki : PDF | CSV
Wyniki uproszczone: PDF | PDF2 | CSV
Klasyfikacje w punktach pomiarowych: Meta
Klasyfikacje wg kategorii: Wszyscy | K-Open | M-Open | K-13 | M-13 | K-18 | M-18 | K-30 | M-30 | K-40 | M-40 | K-50 | M-50 | K-60 | M-60 | K-70+ | M-70+

MscZawodnikNumerKlubMiejscowośćKrajKategoriaMkatK/MCzas
netto
5km
Różn.Tempo
min/km
Tempo
km/h
     
1GARSKI Dawid 42MLKS BASZTA BYTÓWBYTÓWM-181M 100:18:53.37 3:4615.9
2KUŚMIDER Andrzej 108WMLKS POMORZE STARGARDCZAPLINEKM-301M 200:19:04.97+00:00:113:4815.7
3GIŻYŃSKI Damian 49ALPIN SPORT TEAM/SZARE MORSYJASTRZĘBIE ZDRÓJM-302M 300:20:49.06+00:01:554:0914.4
4GĘBSKI Jacek 263CZARNECKI RUN TEAMBLIŻYNM-303M 400:21:46.61+00:02:544:2113.8
5MALEC Mariusz 121STARGARDZKI KLUB MORSÓW MIEDWIANIESTARGARDM-401M 500:22:03.72+00:03:104:2413.6
6ROKOSZ Radosław 238KOSZALINM-304M 600:22:30.05+00:03:374:3013.3
7RYKIEL Michał 181BONINM-305M 700:22:32.90+00:03:414:3013.3
8TUŁACZ Bohdan 221KALISKIE MORSYCHEŁMCEM-402M 800:22:42.82+00:03:494:3213.2
9DEJEWSKI Jakub 26SZARE MORSYJASTRZĘBIE-ZDRÓJM-306M 900:23:01.97+00:04:084:3613
10GRZESIK Eugeniusz 57TKKF KOSZALINKOSZALINM-501M 1000:23:02.01+00:04:094:3613
11JABŁOŃSKI Tomasz 69KB SPOKO SŁAWNOSŁAWNOM-403M 1100:23:17.61+00:04:244:3912.9
12SZPAK Damian 253TYSKIE SINICETYCHYM-502M 1200:23:24.34+00:04:314:4012.8
13POMIAN Sebastian 251ZŁOCIENIECM-182M 1300:23:24.26+00:04:354:4012.8
14AUGUSTYN Mateusz 1MORSY NA KOKSIEZDZIESZOWICEM-183M 1400:23:42.53+00:04:494:4412.6
15FLISZKIEWICZ Artur 247SWARZĘDZM-307M 1500:23:45.18+00:04:534:4512.6
16BIEŃKOWSKI Tomasz 265IQ CONSULTINGNIEKŁONICEM-308M 1600:23:46.84+00:04:544:4512.6
17ZIELIŃSKA Anna 248TRUCHT ŁOBEZŁOBEZK-401K 100:23:47.09+00:04:554:4512.6
18HOREGLAD Paweł 66SPEEDY GONZALESKOSZALINM-184M 1700:23:57.77+00:05:114:4712.5
19GRYGORCEWICZ Jan 269POLICKIE MORSYPOLICEM-503M 1800:24:07.89+00:05:174:4912.4
20BERNATEK Marcin 8STRZEGOMSKA DWUNASTKASTRZEGOMM-404M 1900:24:16.27+00:05:264:5112.4
21SUBERLAK Damian 199RUNDORFINACZAPLINEKM-185M 2000:24:05.60+00:05:294:4912.4
22KRACZYŃSKI Łukasz 11JĘDRZEJÓWM-309M 2100:24:32.57+00:05:394:5412.2
23MUCHA Krzysztof 132KOSZALINM-405M 2200:24:30.52+00:05:414:5412.2
24POKRZYWKA Piotr 170MORSY OPOCZNOOPOCZNOM-3010M 2300:24:22.67+00:05:424:5212.3
25CHORĄŻY Karolina 18LEO-TEAMKOSZALINK-301K 200:24:39.60+00:05:494:5612.2
26WOLIŃSKI Benedykt 235LODOŁAMACZ SKIERNIEWICESKIERNIEWICEM-406M 2400:24:44.25+00:06:034:5612.1
27TARNACKI Mateusz 220MORSY BORÓW NIEMODLIŃSKICHJACZOWICEM-3011M 2500:24:54.25+00:06:034:5812
28KACZMAREK Piotr 78KS AMBERTOMASZÓW MAZM-186M 2600:25:14.16+00:06:085:0211.9
29KATRYCZ Zbigniew 82ŚWIERCZYNAM-504M 2700:25:14.57+00:06:245:0211.9
30PICK Tomasz 160DEAF KOSZALINKOSZALINM-407M 2800:25:13.17+00:06:265:0211.9
31PROTASIEWICZ Robert 219CEWLINOM-408M 2900:25:23.22+00:06:315:0411.8
32STEFANOWICZ Paweł 261KOSZALINM-409M 3000:25:22.06+00:06:335:0411.8
33PAKOWSKI Robert 155KS AMBERTOMASZÓW MAZOWIECKIM-4010M 3100:25:22.87+00:06:345:0411.8
34GĘBSKA Marta 264CZARNECKI RUN TEAMBLIŻYNK-181K 300:25:27.26+00:06:365:0511.8
35KANIOWSKI Piotr 79ROKITNO SZLACHECKIEM-4011M 3200:25:28.36+00:06:365:0511.8
36LANGE Damian 114TEAM POSEJDONAŚWINOUJŚCIEM-3012M 3300:25:21.03+00:06:395:0411.8
37KONKEL Agnieszka 90KOSZALINK-302K 400:25:31.22+00:06:415:0611.8
38MORGIEWICZ Piotr 128GĘSIA SKÓRKA GRYFICEGRYFICEM-505M 3400:25:44.69+00:06:515:0911.7
39KOCIK Kamil 88LZS LASOCINLASOCINM-187M 3500:25:44.15+00:07:025:0811.7
40SPRINGER Marcin 250ZŁOCIENIECM-4012M 3600:26:00.71+00:07:135:1211.5
41GOŁEK Karolina 52FOR-FERST-RUNKOSZALINK-303K 500:26:05.16+00:07:155:1311.5
42DEJEWSKA Arleta 25SZARE MORSYJASTRZĘBIE-ZDRÓJK-304K 600:26:16.40+00:07:235:1511.4
43NIEWIADOMSKI Tomasz 140INOWROCŁAWM-188M 3700:26:19.92+00:07:365:1611.4
44RUTKOWSKI Sławomir 179KOSZALIŃSKI RANKING BIEGACZYKOSZALINM-3013M 3800:26:30.59+00:07:385:1811.3
45GĘBKA Jakub 45JURAJSKIE MORSYZAWIERCIEM-131M 3900:26:32.75+00:07:395:1811.3
46KARKOSZKA Anita 80POZNAŃK-305K 700:26:30.21+00:07:405:1811.3
47WOLSKI Paweł 236NOWOGRÓD BOBRZAŃSKIM-3014M 4000:26:16.06+00:07:425:1511.4
48TYLMAN Piotr 222RUNDORFINACZAPLINEKM-3015M 4100:26:40.80+00:07:505:2011.2
49PIOTROWSKI Grzegorz 165STRZEGOMSKA DWUNASTKAŚWIDNICAM-3016M 4200:26:41.56+00:07:515:2011.2
50DOBROCHOWSKI Marek 28STRZEGOMSKA DWUNASTKASTRZEGOMM-3017M 4300:26:43.78+00:07:525:2011.2
51SZYMAŃSKA Brygida 213STRZEGOMSKA DWUNASTKAJAROSZÓWK-182K 800:26:44.48+00:07:545:2011.2
52KRASIŃSKI Witold 101KOSZALINM-4013M 4400:27:12.06+00:08:235:2611
53MIELCZAREK Krystian 126STARGARDZKI KLUB MORSÓW MIEDWIANIEDOLICEM-3018M 4500:27:08.93+00:08:275:2511
54NOWAK Paweł 143RUNDORFINACZAPLINEKM-3019M 4600:27:17.19+00:08:385:2711
55GŁADYSZAK Michał 50STARGARDZKI KLUB MORSÓW MIEDWIANIESTARGARDM-3020M 4700:27:32.44+00:08:425:3010.9
56WÓJCICKI Adrian 239DEAF KOSZALINKOSZALINM-3021M 4800:27:31.76+00:08:465:3010.9
57HAŁKA Justyna 61TRUCHT ŁOBEZŁOBEZK-306K 900:27:30.89+00:08:465:3010.9
58OGRODOWCZYK Rafał 148MIĘDZYCHÓDM-4014M 4900:27:32.43+00:08:535:3010.9
59SZYMECKI Rafał 217TOTALNIE BIEGNIĘCICHOJNICZKIM-3022M 5000:27:49.41+00:09:005:3310.8
60SYCHA Jarosław 203KOSZALINM-3023M 5100:27:51.44+00:09:025:3410.8
61DALKA Maciej 23POZNAŃM-3024M 5200:27:46.01+00:09:035:3310.8
62KONKEL Łukasz 91KOSZALINM-4015M 5300:27:53.08+00:09:045:3410.8
63ZIÓŁKOWSKI Krzysztof 249MORSY OPOCZNOBUCZEKM-189M 5400:27:49.35+00:09:065:3310.8
64SZEREMETA Adam 255ZGIERZOLUDY ZGIERZDĄBRÓWKAM-4016M 5500:27:54.69+00:09:075:3410.8
65JĘDRYCHA Mariusz 75LODOŁAMACZ MORSY SKIERNIEWICESKIERNIEWICEM-4017M 5600:27:45.03+00:09:105:3310.8
66SZEWCZYK Monika 208KKM KALORYFERKRAKÓWK-307K 1000:28:06.56+00:09:175:3710.7
67DURKALEC Ewelina 33STRZEGOMSKA DWUNASTKASTRZEGOMK-308K 1100:28:19.84+00:09:295:4010.6
68PŁOSZAJCZYK Norbert 167STRZEGOMSKA DWUNASTKABOLKÓWM-506M 5700:28:18.17+00:09:305:3910.6
69KĘDZIORA Ireneusz 84PIONKOWSKIE MORSYPIONKIM-4018M 5800:28:16.18+00:09:325:3910.6
70WIATRZYK Krzysztof 230DARŁOWODARŁOWOM-4019M 5900:28:27.67+00:09:415:4110.5
71MURAWSKA Wioletta 134POLICKIE MORSYPOLICEK-501K 1200:28:35.94+00:09:435:4310.5
72KALMARCZYK Marcin 162ZWOLEŃM-1810M 6000:28:23.03+00:09:465:4010.6
73RUTKOWSKI Artur 178KOSZALIŃKI RANKING BIEGACZYKOSZALINM-1811M 6100:28:39.63+00:09:485:4410.5
74CIUŃCZYK Bogdan 19LODOŁAMACZ KLUB MORSA SKIERNIEWICESKIERNIEWICEM-4020M 6200:28:31.58+00:09:485:4210.5
75GRYGORCEWICZ Władysław 56POLICKIE MORSYPOLICEM-601M 6300:28:43.24+00:09:515:4410.4
76GRUNTOWSKI Mateusz 55NIEMODLINM-3025M 6400:28:46.59+00:09:545:4510.4
77PUŁKOWSKI Rafał 174BIEDRUSKOM-4021M 6500:28:45.24+00:10:005:4510.4
78SZYMECKA Monika 216TOTALNIE BIEGNIĘCICHOJNICZKIK-309K 1300:28:54.57+00:10:055:4710.4
79PIECHOTA Daniel 161HARCIOLEZABRZEM-4022M 6600:29:23.96+00:10:325:5210.2
80WYCZAŁKOWSKI Witold 241WROCŁAWSKIE MORSYWROCŁAWM-507M 6700:29:13.49+00:10:335:5010.3
81WOŁCZYK Małgorzata 237KS AMBERTOMASZÓW MAZOWIECKIK-3010K 1400:29:21.84+00:10:355:5210.2
82LECHOWICZ Tadeusz 115SZARE MORSYJASTRZĘBIE-ZDRÓJM-508M 6800:29:28.55+00:10:405:5310.2
83WIERZBIŃSKI Rafał 231BIAŁOGARDBIAŁOGARDM-3026M 6900:29:26.15+00:10:495:5310.2
84STAŃCZAK Grzegorz 195ASTON VILLAKOSZALIN/MIELNOM-509M 7000:29:33.89+00:10:525:5410.1
85KACZMARCZYK Stanisław 227STARGARDM-602M 7100:29:39.17+00:10:555:5510.1
86SZYMAŃSKI Michał 215STRZEGOMSKA DWUNASTKAJAROSZÓWM-3027M 7200:29:47.99+00:10:585:5710.1
87MALISZEWSKA Anita 123KOSZALINK-183K 1500:29:43.46+00:10:595:5610.1
88JOCHYM Mariusz 76ROSNOWOM-3028M 7300:29:37.63+00:11:015:5510.1
89RYBACKA Katarzyna 180POLARRAWICZK-402K 1600:29:51.78+00:11:095:5810
90MYK Paweł 136KOSZALINM-3029M 7400:30:08.26+00:11:246:0110
91KORZENIOWSKA Ewa 98KOSZALINK-184K 1700:30:09.14+00:11:246:0110
92RODEWALD Ryszard 177BIEGAMDLAZDROWIA.PLJELENIA GÓRAM-4023M 7500:30:21.08+00:11:396:049.9
93PACAN Mira 152ŚWIAT PŁYTEK U KRYSPINABYTÓWK-3011K 1800:30:19.66+00:11:406:039.9
94DOBROCHOWSKA Ilona 27STRZEGOMSKA DWUNASTKASTRZEGOMK-403K 1900:30:34.48+00:11:456:069.8
95KOPYŚCIAŃSKI Piotr 95LEGNICKIE MORSYLEGNICAM-4024M 7600:30:26.31+00:11:476:059.9
96MARCZYKOWSKI Jarosław 228GRAJEWOM-5010M 7700:30:33.96+00:11:496:069.8
97MOŃKA Andrzej 127ZMORSOWANICZĘSTOCHOWAM-4025M 7800:30:32.31+00:11:526:069.8
98SZOSTAK Marcin 209WIECZORNE BIEGANIE W SZCZECINIESZCZECINM-3030M 7900:30:33.10+00:11:556:069.8
99KORCZAK Piotr 96GÓRSKIE WŁÓCZYKIJEPŁOCKM-3031M 8000:30:34.71+00:11:576:079.8
100ZAKRZEWSKA Elżbieta 243POSEJDON KOSZALINSTOISŁAWK-502K 2000:30:55.45+00:12:056:119.7
101KRUPA Irena 102EKIPA LODOWCOWACHLEWISKAK-3012K 2100:30:48.63+00:12:066:099.7
102ZAPORA Patrycja 245KLUB MORSA 'KROPELKA' PIECHOWICEPIECHOWICEK-404K 2200:30:53.07+00:12:066:109.7
103HAŁKA Arkadiusz 62TRUCHT ŁOBEZŁOBEZM-4026M 8100:30:52.84+00:12:096:109.7
104PEŁKA Aneta 159K.S.AMBERTOMASZÓW MAZ.K-405K 2300:31:05.36+00:12:126:139.7
105WARCHOŁ Grzegorz 224MORSY NA KOKSIEZDZIESZOWICEM-3032M 8200:31:03.75+00:12:136:129.7
106PEC Rafał 158MORSY OPOCZNOOPOCZNOM-3033M 8300:30:57.54+00:12:146:119.7
107MRUGALSKI Stanisław 131MIASTKOM-5011M 8400:30:47.67+00:12:176:099.7
108MARASEK Mikołaj 254KKM KALORYFERKRAKÓWM-132M 8500:31:14.66+00:12:226:159.6
109SZOT Ewa 210KOSZALINK-406K 2400:31:07.45+00:12:296:139.6
110WĄSIK Marek 256WROCŁAWM-5012M 8600:31:31.51+00:12:406:189.5
111PACAN Bartosz 153ŚWIAT PŁYTEK U KRYSPINABYTÓWM-3034M 8700:31:19.98+00:12:416:169.6
112BANASIK Wiesław 3MORSY NA KOKSIEZDZIESZOWICEM-5013M 8800:31:36.76+00:12:516:199.5
113GNIOT Katarzyna 51MORSY NA KOKSIEZDZIESZOWICEK-3013K 2500:31:43.20+00:12:516:209.5
114NOWAK Katarzyna 146LIGOTA TUŁOWICKAK-3014K 2600:31:40.53+00:12:566:209.5
115MARYSIAK Karol 9POWIDZM-3035M 8900:31:18.90+00:12:566:159.6
116IGNACZEWSKA Maja Ignaczewska 68DUBLINK-3015K 2700:31:40.00+00:13:076:209.5
117JUSZCZAK Krzysztof 6KOSZALINM-603M 9000:31:30.56+00:13:076:189.5
118CHMIEL Nina 262CZARNECKI RUN TEAMMOSTKIK-503K 2800:31:51.84+00:13:086:229.4
119SOMERFELD Wiktor 233POWIDZM-4027M 9100:31:34.48+00:13:116:199.5
120MATCZAK Jacek 124BOLESŁAWIECM-4028M 9200:32:03.49+00:13:206:249.4
121WAŚNIEWSKI Adam 226GÓRSKIE WŁÓCZYKIJETCZEWM-4029M 9300:32:00.99+00:13:216:249.4
122CHOJNACKA-MARYSIAK Anna 17KLUB SPORTOWY LIBERO / POWIDZKIE MORSYPOWIDZK-3016K 2900:31:46.22+00:13:236:219.4
123DALKA Hanna 22NIEZRZESZONAPOZNAŃK-3017K 3000:32:16.71+00:13:336:279.3
124MADEJ Elżbieta 120ŁÓDZKIE MORSYŁÓDŹK-504K 3100:32:27.56+00:13:396:299.2
125STELMASZCZYK Dominik 198DOMINOTEAMCZĘSTOCHOWAM-4030M 9400:32:18.22+00:13:416:279.3
126SZELMECZKA Bogdan 207EUFORIAPIŁAM-604M 9500:32:09.37+00:13:456:269.3
127CHILLA Danuta 16MIELNOK-3018K 3200:32:35.45+00:13:526:319.2
128SZOTA Rafał 212KKM KALORYFERKRAKÓWM-4031M 9600:32:48.89+00:13:596:339.1
129NOWAK Jarosław 145LODOŁAMACZE MARGONINCHODZIEŻM-4032M 9700:33:02.66+00:14:276:369.1
130JURA Kazimierz 77MTS HAMER MIASTKOMIASTKOM-70+1M 9800:32:59.18+00:14:296:359.1
131SPRINGER Jagoda 252ZŁOCIENIECK-131K 3300:33:18.78+00:14:316:399
132WIERZBOWSKI Jarosław 260ZGIERZOLUDYM-3036M 9900:33:21.42+00:14:346:409
133WYSOCKI Jarosław 242WROCŁAWSKIE MORSYWROCŁAWM-5014M 10000:33:13.21+00:14:386:389
134DUDEK Magdalena 32KKM KALORYFERKRAKOWK-3019K 3400:33:27.90+00:14:386:419
135WACŁAWSKA Izabela 266ŁÓDZKIE MORSYŁÓDŹK-407K 3500:33:29.37+00:14:426:419
136FRONTCZAK Kamil 40ŁÓDZKIE MORSYZGIERZM-3037M 10100:33:29.50+00:14:426:419
137ADAMCZYK Piotr 267ŁÓDZKIE MORSYŁÓDŹM-4033M 10200:33:29.37+00:14:436:429
138SZATKOWSKA Anna 206ŁÓDZKIE MORSYŁÓDŹK-3020K 3600:33:31.83+00:14:436:428.9
139SYPEREK Marcin 258WROCŁAWSKIE MORSYWROCŁAWM-4034M 10300:33:30.36+00:14:496:429
140NITA Małgorzata 141POZNAŃK-408K 3700:33:37.61+00:14:516:438.9
141WRÓBLEWSKA Marta 240KOSZALINK-409K 3800:33:47.10+00:15:066:458.9
142KUBICZEK Grzegorz 104JURAJSKIE MORSYŁAZYM-5015M 10400:33:56.55+00:15:066:478.8
143SROKA Lidia 192JURAJSKIE MORSYZAWIERCIEK-4010K 3900:33:56.93+00:15:066:478.8
144SKAŁA Renia 189JURAJSKIE MORSYZAWIERCIEK-4011K 4000:33:51.86+00:15:116:468.9
145KUTWIN Artur 110OKEANOSKOSZALINM-4035M 10500:33:51.21+00:15:166:468.9
146GĘBKA Joanna 44JURAJSKIE MORSYZAWIERCIEK-4012K 4100:33:58.48+00:15:186:478.8
147GALIŃSKI Paweł 41KS AMBERTOMASZÓW MAZOWIECKIM-4036M 10600:34:05.63+00:15:196:498.8
148GĘBKA Marcin 46JURAJSKIE MORSYZAWIERCIEM-4037M 10700:33:57.84+00:15:196:478.8
149KILAN Adrian 86ŚWIDWINM-3038M 10800:33:59.47+00:15:256:478.8
150CZERNIEWSKI Marcin 20WROCLAWM-3039M 10900:34:03.10+00:15:276:488.8
151WOJTYSIAK Dorota 234BYDGOSZCZK-3021K 4200:34:15.60+00:15:316:518.8
152MULARCZYK Krzysztof 133WARECKIE MORSYKRĘŻELM-3040M 11000:34:18.82+00:15:426:518.7
153HELLER Zdzisław 63NIEZRZESZONYKOSZALINM-605M 11100:34:23.44+00:15:486:528.7
154SURÓWKA Wioleta 201SKAWINA BIEGAMOGILANYK-3022K 4300:34:44.13+00:15:556:568.6
155FEDYCZKOWSKA Justyna 38STRZEGOMSKA DWUNASTKASTRZEGOMK-4013K 4400:34:41.08+00:16:016:568.6
156HRYCIÓW Paweł 67JW1223BIAŁOGARDM-3041M 11200:34:38.02+00:16:026:558.7
157BASIAK Krystian 5JW1223KOSZALINM-3042M 11300:34:39.62+00:16:036:568.7
158STAŃCZYK Sławomir 196STARGARDZKI KLUB MORSÓW MIEDWIANIESTARGARDM-3043M 11400:34:48.69+00:16:046:578.6
159OSIOWY Ewa 150ESKIMOSKOSZALINK-3023K 4500:34:59.37+00:16:097:008.6
160PAZERA Piotr 157SZYDŁOWIECM-3044M 11500:35:07.31+00:16:167:018.5
161PODSIADŁA Ewelina 169BUDKIK-3024K 4600:35:07.73+00:16:167:018.5
162KOWALISZYN Małgorzata 100DOBROMORSYJELENIA GÓRAK-4014K 4700:35:23.61+00:16:387:048.5
163GAWLE Kinga 43HEINEKEN KRAKOW RUNNING CLUB DAREDEVILS TRIATHLONTEAMSKAWINAK-3025K 4800:35:33.59+00:16:457:068.4
164DUDEK Mariola 31STRZEGOMSKA DWUNASTKAJAROSŁAWK-4015K 4900:35:27.07+00:16:477:058.5
165DUDEK Krzysztof 30STRZEGOMSKA DWUNASTKAUDANINM-4038M 11600:35:28.02+00:16:487:058.5
166POMRENKE Łukasz 171KATOWICKI KLUB MORSÓW ARKTYKAKATOWICEM-1812M 11700:35:41.57+00:16:567:088.4
167KIEŁKOWSKA Agnieszka 85SZARE MORSYJASTRZĘBIEK-4016K 5000:35:47.87+00:17:037:098.4
168KONKEL Joanna 92MKS 'ŚWIĘC' SŁAWNOSŁAWNOK-505K 5100:35:59.94+00:17:147:128.3
169JASEK Wiola 73ŚWIĘTOCHŁOWICKI KLUB MORSÓW HARCIOLEZABRZEK-4017K 5200:35:59.64+00:17:167:128.3
170BAJCAR Beata 2SZARE MORSYCHYBIEK-4018K 5300:36:03.41+00:17:207:128.3
171MARCZYKOWSKA Dorota 164GRAJEWOK-4019K 5400:36:19.29+00:17:337:158.3
172JAKUBEK Anna 71SOPELEKBEDZIEMYSLK-3026K 5500:36:21.18+00:17:407:168.3
173KURCZ Barbara 107BABECZKI KOSZALINKOSZALINK-4020K 5600:36:22.56+00:17:427:168.2
174BARAN Irena 4SZARE MORSYJASTRZĘBIE-ZDRÓJK-506K 5700:36:29.54+00:17:457:178.2
175KARPOWSKI Marian 81CYCÓWM-5016M 11800:37:00.54+00:18:207:248.1
176RAWECKA Elwira 176NIGHT RUNNERSPOZNAŃK-507K 5800:37:03.03+00:18:217:248.1
177WINKIEL Wiesław 232SZARE MORSYJASTRZĘBIE ZDRÓJM-606M 11900:37:13.41+00:18:297:268.1
178SZOTA Monika 211KKM KALORYFERKRAKÓWK-4021K 5900:37:23.42+00:18:347:288
179WEISS Anna 229GRODZISK WIELKOPOLSKIK-4022K 6000:37:28.35+00:18:417:298
180MAĆKOWIAK Ewa 119NIAGARA KLUB MORSÓWWOLSZTYNK-3027K 6100:37:29.72+00:18:417:308
181SIKORSKA Katarzyna 186NIAGARA KLUB MORSÓWGRODZISK WLKP.K-3028K 6200:37:29.53+00:18:417:298
182ZANDECKA Anita 244NIAGARA KLUB MORSÓWGRODZISK WIELKOPOLSKIK-185K 6300:37:28.85+00:18:427:298
183KONKIEWICZ Katarzyna 93GRODZISKI KLUB BIEGACZAGRODZISK WIELKOPOLSKIK-4023K 6400:37:30.36+00:18:427:308
184UTRATA Asia 223NIAGARA KLUB MORSÓWADAMOWO 13BK-4024K 6500:37:29.81+00:18:427:308
185SZYMAŃSKA Edyta 214NIAGARAKLUB MORSÓWWOLSZTYNK-4025K 6600:37:29.30+00:18:427:308
186SKAŁA Rafał 188JURAJSKIE MORSYZAWIERCIEM-4039M 12000:37:38.98+00:18:597:318
187MĄCZKA Michał 125JURAJSKIE MORSYOLKUSZM-4040M 12100:37:36.75+00:18:597:318
188STACHOWICZ-MĄCZKA Dorota 194JURAJSKIE MORSYOLKUSZK-4026K 6700:37:36.52+00:18:597:318
189NITSCHKE Grażyna 142MORSY TAKE CONTROLPOZNAŃK-4027K 6800:37:37.03+00:19:027:318
190PAWŁOWSKA Violetta 156MORSY TAKE CONTROLPOZNAŃK-4028K 6900:37:38.02+00:19:037:318
191ŁABIAK Andrzej 117MILICKI KLUB MORSÓWSŁAWOSZOWICE - MILICZM-4041M 12200:37:38.09+00:19:077:318
192DZIEDZIC Piotr 35MILICKIE MORSYMILICZM-5017M 12300:37:39.75+00:19:077:328
193MUSIELAK Wioleta 135MILICKIE MORSYMILICZK-4029K 7000:37:39.93+00:19:077:328
194PYTLIK Dariusz 175SG SQUADDĄBROWA GÓRNICZAM-5018M 12400:37:52.55+00:19:167:347.9
195BEDNAREK Małgorzata 7ŁÓDŹK-3029K 7100:37:51.36+00:19:187:347.9
196GRZEŚKIEWICZ Izabela 58OSTROWSKIE MORSYOSTRÓW WIELKOPOLSKIK-3030K 7200:38:05.22+00:19:237:377.9
197HETMANOWSKI Jędrzej 65ULTRA PMIMIĘDZYCHÓDM-4042M 12500:38:13.82+00:19:357:387.8
198OGRODOWCZYK Kamilla 147BIELSKOK-4030K 7300:38:14.23+00:19:357:387.8
199HETMANOWSKA Anna 64ULTRA PMIMIĘDZYCHÓDK-4031K 7400:38:16.42+00:19:367:397.8
200KWARCIAK Natalia 111SKM MIEDWIANIASTARGARDK-3031K 7500:38:21.91+00:19:397:407.8
201LAL Monika 113RUNGRYFGRYFICEK-508K 7600:38:41.02+00:19:497:447.8
202GIŻYŃSKA Katarzyna 48KOBIETY NA 5+JASTRZĘBIE ZDRÓJK-3032K 7700:38:43.71+00:19:597:447.7
203ŚMIGIELSKA Justyna 218MORSY NA KOKSIEZDZIESZOWICEK-3033K 7800:39:04.04+00:20:197:497.7
204SAREŁO- JANIAK Beata 183ZGORZELECK-509K 7900:38:54.66+00:20:207:477.7
205KOROL Elzbieta 97KOSZALINK-4032K 8000:38:51.04+00:20:217:467.7
206GRZYMALA Angelika 59KOSZALINK-4033K 8100:38:50.46+00:20:217:467.7
207MOZEJKO Anna 129KOSZALINK-3034K 8200:38:51.14+00:20:227:467.7
208KUSZ Aleksander 151NIENADÓWKAM-5019M 12600:39:22.55+00:20:427:527.6
209SZAFCZYK Anita 205MORSY KLIMA WRZEŚNIAWRZEŚNIAK-4034K 8300:39:19.22+00:20:447:517.6
210MAŁECKI Krzysztof 268MORSY KLIMA WRZEŚNIAWRZEŚNIAM-3045M 12700:39:19.40+00:20:447:527.6
211NECEL Dorota 138KRAKOWSKI KLUB MORSÓW KALORYFERKRAKÓWK-4035K 8400:39:53.77+00:21:057:587.5
212PAJĄK Anna 154AMBERTOMASZÓW MAZOWIECKIK-4036K 8500:39:53.71+00:21:077:587.5
213ERBETOWSKA Agnieszka 37JELENIA GÓRAK-4037K 8600:39:53.62+00:21:087:587.5
214DĄBROWSKA Katarzyna 24RUNDORFINACZAPLINEKK-3035K 8700:39:50.86+00:21:117:587.5
215FIRLEJ Agnieszka 39RUNDORFINACZAPLINEKK-4038K 8800:39:51.63+00:21:127:587.5
216PRĘDOTA Michal 172JURAJSKIE MORSYZAWIERCIEM-3046M 12800:40:18.94+00:21:408:037.4
217ŁABIAK Aneta 116MILICKI KLUB MORSÓWSŁAWOSZOWICE - MILICZK-4039K 8900:40:23.62+00:21:508:047.4
218KUŚNIERZ Dariusz 109POLARBARTOSZYCEM-5020M 12900:40:37.68+00:22:028:077.4
219SKOWYRA Wioletta 190GĘSIA SKÓRKA GRYFICEBARKOWOK-4040K 9000:40:42.54+00:22:138:087.4
220KUCHARCZYK Robert 105GĘSIA SKÓRKA GRYFICEGRYFICEM-4043M 13000:40:44.05+00:22:138:087.4
221PISKORZ Anna 166NIAGARA KLUB MORSÓWWOLSZTYNK-4041K 9100:41:08.44+00:22:218:137.3
222GOŁĘBSKA Jolanta 53MIELNOK-4042K 9200:41:03.85+00:22:338:127.3
223BŁOŃSKA Agnieszka 10KOSZALINK-4043K 9300:41:06.96+00:22:368:137.3
224CZEKALSKI Dariusz 259ZGIERZOLUDYZGIERZM-5021M 13100:41:46.93+00:23:008:217.2
225SWOROWSKA Kasia 202OKEANOSKOSZALINK-3036K 9400:41:43.22+00:23:148:207.2
226GRODZIŃSKA Agnieszka 54SKM MIEDWIANIESTARGARDK-4044K 9500:41:54.20+00:23:148:227.2
227RZEPECKI Bartłomiej 182GRUPA BIEGOWA WROCŁAWSKIE MORSYWROCŁAWM-3047M 13200:42:27.66+00:24:008:297.1
228PŁOSZAJCZYK Beata 168STRZEGOMSKA DWUNASTKABOLKÓWK-5010K 9600:42:48.73+00:24:108:337
229WARSZAWSKI Rafał 225OSTROWSKIE MORSYOSTRÓW WIELKOPOLSKIM-4044M 13300:42:55.73+00:24:148:357
230WIKTOREK Jadwiga 257ZGIERZOLUBY ZGIERZZGIERZK-601K 9700:43:28.21+00:24:408:416.9
231BUCZYŃSKI Krzysztof 15GĘSIA SKÓRKA GRYFICEGRYFICEM-5022M 13400:43:22.16+00:24:548:406.9
232SIKORRA Janina 130LĘDZIECHOWOK-70+1K 9800:44:26.66+00:25:488:536.8
233LEWANDOWSKI Marek 173BERLINM-607M 13500:44:46.05+00:26:118:576.7
234KWIADOR Artur 112ŚWIĘTOCHŁOWICKI KLUB MORSÓW HARCIOLEGLIWICEM-4045M 13600:44:53.63+00:26:118:586.7
235SITARSKA Agnieszka 187ŚWIĘTOCHŁOWICKI KLUB MORSÓW HARCIOLERUDA ŚLĄSKAK-4045K 9900:44:55.21+00:26:138:596.7
236DOMARADZKA Malgorzata 29K-4046K 10000:45:43.32+00:27:109:086.6
237SROKA Grzegorz 193JURAJSKIE MORSYOLKUSZM-4046M 13700:47:43.16+00:29:069:326.3
238KĘDZIORA Ludwik 83MORSY OSTRÓW WLKP.OSTRÓW WIELEKOPOLSKIM-70+2M 13800:47:58.78+00:29:279:356.3
239ZATOR Katarzyna 246PIEŃSKK-4047K 10100:48:03.03+00:29:319:366.2
240KOGUT MORDALSKA Anna 89DUBLINK-4048K 10200:48:04.15+00:29:329:366.2
241KUCHARCZYK Elżbieta 106GĘSIA SKÓRKA GRYFICEGRYFICEK-4049K 10300:58:03.06+00:39:3411:365.2
242SKOWYRA Arkadiusz 191GĘSIA SKÓRKA GRYFICEGRYFICEM-3048M 13900:58:04.84+00:39:3411:375.2
243HAŁAS Renata 60SZYBCIEJ NIE MOGESZCZECINK-5011K 10400:58:11.85+00:39:3511:385.2
244KOCIK Szymon 87LZS LASOCINLASOCINM-1813M 140   
Znaleziono 244 wynik(ów)